createdAt,value
2022-09-14T00:01:25.978Z,1.30
2022-09-14T00:03:55.549Z,3.83
2022-09-14T00:06:22.993Z,1.65
2022-09-14T00:08:54.355Z,1.58
2022-09-14T00:11:22.700Z,1.25
2022-09-14T00:13:50.362Z,1.10
2022-09-14T00:16:24.058Z,1.80
2022-09-14T00:18:55.731Z,1.30
2022-09-14T00:21:23.361Z,2.60
2022-09-14T00:23:50.138Z,1.80
2022-09-14T00:26:19.442Z,2.05
2022-09-14T00:28:49.036Z,1.60
2022-09-14T00:31:16.691Z,4.80
2022-09-14T00:33:44.493Z,4.50
2022-09-14T00:36:19.819Z,2.53
2022-09-14T00:38:47.350Z,2.13
2022-09-14T00:41:20.813Z,1.80
2022-09-14T00:44:02.760Z,4.15
2022-09-14T00:46:31.764Z,1.88
2022-09-14T00:49:04.203Z,2.75
2022-09-14T00:51:33.463Z,2.10
2022-09-14T00:54:04.650Z,4.72
2022-09-14T00:56:31.647Z,2.50
2022-09-14T00:58:59.798Z,2.88
2022-09-14T01:01:26.945Z,2.00
2022-09-14T01:03:53.554Z,2.78
2022-09-14T01:06:36.072Z,2.80
2022-09-14T01:09:11.698Z,1.63
2022-09-14T01:11:59.192Z,2.42
2022-09-14T01:14:43.043Z,2.60
2022-09-14T01:17:32.958Z,2.63
2022-09-14T01:20:18.083Z,2.65
2022-09-14T01:22:52.356Z,3.50
2022-09-14T01:25:22.378Z,2.65
2022-09-14T01:27:51.689Z,1.55
2022-09-14T01:30:23.165Z,2.22
2022-09-14T01:32:56.571Z,2.38
2022-09-14T01:35:29.786Z,1.65
2022-09-14T01:38:03.082Z,3.50
2022-09-14T01:40:38.535Z,2.00
2022-09-14T01:43:15.300Z,1.70
2022-09-14T01:45:50.547Z,2.45
2022-09-14T01:48:23.597Z,1.52
2022-09-14T01:50:55.361Z,2.63
2022-09-14T01:53:35.056Z,3.55
2022-09-14T01:56:07.872Z,1.90
2022-09-14T01:58:45.323Z,1.40
2022-09-14T02:01:22.151Z,2.60
2022-09-14T02:03:58.258Z,4.05
2022-09-14T02:06:36.129Z,2.22
2022-09-14T02:09:04.316Z,2.13
2022-09-14T02:11:31.357Z,1.92
2022-09-14T02:13:58.350Z,5.95
2022-09-14T02:16:26.259Z,2.08
2022-09-14T02:18:53.217Z,2.13
2022-09-14T02:21:29.409Z,1.60
2022-09-14T02:23:58.080Z,1.90
2022-09-14T02:26:25.301Z,1.85
2022-09-14T02:28:56.243Z,3.20
2022-09-14T02:31:43.880Z,1.92
2022-09-14T02:34:20.265Z,1.67
2022-09-14T02:37:10.645Z,2.35
2022-09-14T02:39:46.362Z,1.85
2022-09-14T02:42:40.825Z,2.58
2022-09-14T02:45:24.815Z,1.98
2022-09-14T02:48:03.755Z,1.73
2022-09-14T02:50:35.808Z,1.80
2022-09-14T02:53:13.521Z,4.72
2022-09-14T02:55:47.728Z,2.55
2022-09-14T02:58:15.097Z,1.73
2022-09-14T03:00:44.475Z,2.45
2022-09-14T03:03:12.857Z,1.48
2022-09-14T03:05:40.108Z,5.13
2022-09-14T03:08:07.113Z,1.45
2022-09-14T03:10:34.399Z,2.10
2022-09-14T03:13:01.132Z,3.83
2022-09-14T03:15:28.598Z,2.42
2022-09-14T03:17:55.533Z,2.17
2022-09-14T03:20:29.759Z,1.73
2022-09-14T03:22:58.975Z,1.80
2022-09-14T03:25:25.953Z,2.55
2022-09-14T03:27:55.555Z,3.15
2022-09-14T03:30:22.345Z,1.63
2022-09-14T03:32:49.867Z,1.90
2022-09-14T03:35:17.470Z,2.53
2022-09-14T03:37:45.605Z,4.00
2022-09-14T03:40:19.445Z,7.95
2022-09-14T03:42:50.952Z,1.80
2022-09-14T03:45:18.932Z,1.67
2022-09-14T03:47:46.929Z,2.03
2022-09-14T03:50:15.338Z,1.75
2022-09-14T03:52:41.877Z,2.00
2022-09-14T03:55:09.380Z,2.42
2022-09-14T03:57:36.610Z,2.20
2022-09-14T04:00:04.932Z,2.20
2022-09-14T04:02:31.573Z,1.95
2022-09-14T04:04:58.443Z,2.58
2022-09-14T04:07:25.162Z,2.83
2022-09-14T04:09:51.845Z,2.35
2022-09-14T04:12:18.529Z,2.90
2022-09-14T04:14:45.020Z,1.65
2022-09-14T04:17:11.541Z,2.33
2022-09-14T04:19:41.610Z,2.33
2022-09-14T04:22:08.429Z,7.40
2022-09-14T04:24:35.123Z,3.50
2022-09-14T04:27:01.922Z,3.08
2022-09-14T04:29:30.597Z,1.63
2022-09-14T04:31:57.713Z,1.50
2022-09-14T04:34:24.966Z,2.80
2022-09-14T04:36:51.565Z,3.92
2022-09-14T04:39:18.364Z,4.05
2022-09-14T04:41:45.041Z,2.92
2022-09-14T04:44:12.118Z,2.42
2022-09-14T04:46:43.651Z,2.58
2022-09-14T04:49:13.812Z,4.35
2022-09-14T04:51:40.470Z,1.98
2022-09-14T04:54:07.784Z,3.63
2022-09-14T04:56:37.124Z,1.77
2022-09-14T04:59:04.823Z,3.45
2022-09-14T05:01:40.755Z,4.38
2022-09-14T05:04:08.859Z,3.30
2022-09-14T05:06:38.381Z,2.78
2022-09-14T05:09:07.588Z,3.25
2022-09-14T05:11:36.241Z,2.88
2022-09-14T05:14:03.737Z,3.63
2022-09-14T05:16:36.061Z,4.13
2022-09-14T05:19:06.192Z,5.97
2022-09-14T05:21:34.926Z,2.60
2022-09-14T05:24:05.514Z,2.35
2022-09-14T05:26:32.696Z,2.20
2022-09-14T05:29:01.170Z,7.55
2022-09-14T05:31:29.140Z,2.72
2022-09-14T05:33:55.996Z,3.85
2022-09-14T05:36:23.375Z,3.83
2022-09-14T05:38:50.018Z,4.32
2022-09-14T05:41:16.912Z,12.10
2022-09-14T05:43:44.001Z,5.38
2022-09-14T05:46:13.924Z,3.47
2022-09-14T05:48:41.327Z,4.38
2022-09-14T05:51:11.478Z,5.25
2022-09-14T05:53:38.234Z,4.35
2022-09-14T05:56:12.318Z,4.20
2022-09-14T05:58:40.252Z,6.18
2022-09-14T06:01:12.154Z,5.90
2022-09-14T06:03:38.783Z,9.25
2022-09-14T06:06:07.140Z,5.85
2022-09-14T06:08:34.433Z,4.82
2022-09-14T06:11:06.172Z,5.25
2022-09-14T06:13:33.117Z,3.97
2022-09-14T06:16:11.523Z,8.75
2022-09-14T06:18:40.184Z,4.30
2022-09-14T06:21:07.867Z,4.90
2022-09-14T06:23:35.195Z,4.68
2022-09-14T06:26:04.580Z,4.53
2022-09-14T06:28:32.625Z,4.57
2022-09-14T06:30:59.832Z,5.55
2022-09-14T06:33:26.611Z,4.40
2022-09-14T06:36:01.770Z,4.70
2022-09-14T06:38:29.538Z,6.20
2022-09-14T06:40:57.930Z,5.28
2022-09-14T06:43:25.808Z,3.97
2022-09-14T06:46:00.960Z,5.50
2022-09-14T06:48:29.773Z,5.10
2022-09-14T06:50:57.275Z,4.32
2022-09-14T06:53:24.243Z,3.67
2022-09-14T06:55:50.746Z,4.25
2022-09-14T06:58:17.385Z,3.70
2022-09-14T07:00:43.961Z,3.63
2022-09-14T07:03:10.932Z,3.45
2022-09-14T07:05:37.523Z,5.03
2022-09-14T07:08:04.065Z,4.07
2022-09-14T07:10:39.619Z,3.70
2022-09-14T07:13:06.298Z,4.68
2022-09-14T07:15:33.488Z,7.68
2022-09-14T07:18:00.158Z,5.70
2022-09-14T07:20:26.919Z,10.18
2022-09-14T07:22:53.501Z,6.25
2022-09-14T07:25:20.052Z,8.27
2022-09-14T07:27:46.706Z,7.60
2022-09-14T07:30:13.315Z,8.02
2022-09-14T07:32:40.509Z,8.52
2022-09-14T07:35:07.541Z,6.32
2022-09-14T07:37:34.673Z,5.90
2022-09-14T07:40:01.569Z,7.25
2022-09-14T07:42:28.298Z,5.47
2022-09-14T07:44:54.947Z,6.35
2022-09-14T07:47:21.522Z,4.72
2022-09-14T07:49:48.081Z,4.28
2022-09-14T07:52:14.857Z,3.92
2022-09-14T07:54:42.114Z,6.28
2022-09-14T07:57:08.809Z,4.95
2022-09-14T07:59:37.016Z,4.20
2022-09-14T08:02:10.059Z,7.40
2022-09-14T08:04:39.345Z,5.40
2022-09-14T08:07:06.438Z,5.07
2022-09-14T08:09:33.430Z,4.78
2022-09-14T08:12:00.633Z,4.32
2022-09-14T08:14:27.236Z,4.10
2022-09-14T08:16:53.867Z,5.40
2022-09-14T08:19:23.073Z,4.43
2022-09-14T08:21:49.670Z,9.02
2022-09-14T08:24:19.024Z,3.80
2022-09-14T08:26:46.870Z,4.38
2022-09-14T08:29:14.656Z,8.25
2022-09-14T08:31:42.657Z,8.52
2022-09-14T08:34:09.452Z,4.18
2022-09-14T08:36:40.002Z,5.70
2022-09-14T08:39:11.874Z,4.35
2022-09-14T08:41:44.818Z,7.22
2022-09-14T08:44:21.333Z,5.75
2022-09-14T08:46:55.871Z,4.78
2022-09-14T08:49:45.261Z,5.68
2022-09-14T08:52:27.145Z,5.38
2022-09-14T08:54:57.242Z,6.22
2022-09-14T08:57:39.529Z,7.40
2022-09-14T09:00:21.054Z,6.07
2022-09-14T09:03:08.670Z,5.40
2022-09-14T09:05:47.167Z,6.90
2022-09-14T09:08:24.927Z,8.77
2022-09-14T09:10:54.708Z,5.53
2022-09-14T09:13:26.441Z,6.55
2022-09-14T09:15:56.965Z,8.32
2022-09-14T09:18:35.386Z,6.70
2022-09-14T09:21:12.894Z,4.03
2022-09-14T09:23:41.175Z,4.55
2022-09-14T09:26:17.530Z,5.68
2022-09-14T09:28:54.398Z,4.07
2022-09-14T09:31:33.963Z,4.57
2022-09-14T09:34:01.294Z,2.97
2022-09-14T09:36:33.656Z,4.15
2022-09-14T09:39:04.445Z,3.03
2022-09-14T09:41:41.585Z,3.80
2022-09-14T09:44:10.603Z,3.85
2022-09-14T09:46:48.285Z,3.67
2022-09-14T09:49:31.115Z,2.90
2022-09-14T09:52:09.062Z,3.80
2022-09-14T09:54:36.312Z,3.50
2022-09-14T09:57:07.010Z,2.72
2022-09-14T09:59:38.756Z,2.97
2022-09-14T10:02:14.303Z,3.38
2022-09-14T10:04:57.245Z,4.82
2022-09-14T10:07:24.424Z,5.30
2022-09-14T10:09:59.635Z,4.55
2022-09-14T10:12:26.893Z,3.92
2022-09-14T10:15:22.598Z,5.00
2022-09-14T10:18:10.911Z,4.55
2022-09-14T10:20:41.882Z,3.85
2022-09-14T10:23:20.395Z,3.67
2022-09-14T10:25:51.923Z,3.33
2022-09-14T10:28:28.781Z,5.05
2022-09-14T10:31:19.569Z,3.92
2022-09-14T10:33:56.828Z,3.72
2022-09-14T10:36:35.831Z,5.00
2022-09-14T10:39:26.493Z,4.15
2022-09-14T10:42:08.005Z,4.32
2022-09-14T10:44:40.895Z,3.25
2022-09-14T10:47:10.512Z,2.60
2022-09-14T10:50:23.994Z,2.72
2022-09-14T10:53:00.412Z,3.40
2022-09-14T10:55:34.566Z,3.03
2022-09-14T10:58:21.281Z,3.03
2022-09-14T11:01:08.658Z,3.13
2022-09-14T11:04:05.810Z,3.55
2022-09-14T11:07:04.797Z,4.38
2022-09-14T11:09:50.125Z,2.47
2022-09-14T11:12:21.104Z,2.30
2022-09-14T11:14:59.945Z,2.67
2022-09-14T11:18:08.080Z,3.65
2022-09-14T11:20:43.335Z,4.13
2022-09-14T11:23:31.116Z,4.25
2022-09-14T11:26:10.367Z,2.50
2022-09-14T11:28:58.834Z,2.88
2022-09-14T11:31:32.265Z,3.88
2022-09-14T11:34:22.403Z,3.95
2022-09-14T11:36:54.737Z,2.70
2022-09-14T11:39:29.644Z,3.10
2022-09-14T11:42:30.675Z,6.53
2022-09-14T11:45:06.290Z,2.78
2022-09-14T11:47:43.322Z,6.05
2022-09-14T11:50:26.733Z,3.22
2022-09-14T11:53:14.489Z,2.85
2022-09-14T11:55:46.766Z,2.55
2022-09-14T11:58:24.053Z,2.60
2022-09-14T12:01:24.652Z,2.00
2022-09-14T12:03:57.574Z,2.13
2022-09-14T12:06:30.156Z,2.20
2022-09-14T12:09:24.449Z,2.90
2022-09-14T12:11:53.288Z,2.78
2022-09-14T12:14:30.996Z,3.42
2022-09-14T12:17:40.748Z,4.53
2022-09-14T12:20:29.577Z,2.67
2022-09-14T12:23:26.944Z,7.20
2022-09-14T12:25:59.432Z,3.33
2022-09-14T12:28:37.394Z,2.55
2022-09-14T12:31:03.946Z,2.97
2022-09-14T12:33:31.111Z,4.30
2022-09-14T12:36:04.166Z,3.97
2022-09-14T12:38:30.833Z,3.17
2022-09-14T12:40:58.496Z,2.83
2022-09-14T12:43:34.269Z,2.25
2022-09-14T12:46:22.683Z,4.20
2022-09-14T12:48:49.539Z,2.90
2022-09-14T12:51:31.551Z,2.92
2022-09-14T12:54:00.960Z,3.25
2022-09-14T12:56:32.429Z,2.95
2022-09-14T12:59:23.134Z,5.07
2022-09-14T13:02:27.285Z,2.47
2022-09-14T13:04:57.023Z,2.72
2022-09-14T13:07:32.126Z,3.38
2022-09-14T13:10:00.758Z,3.00
2022-09-14T13:12:39.321Z,4.13
2022-09-14T13:15:16.319Z,4.03
2022-09-14T13:18:02.995Z,5.43
2022-09-14T13:20:31.952Z,3.35
2022-09-14T13:22:58.914Z,3.45
2022-09-14T13:25:33.024Z,5.63
2022-09-14T13:28:02.393Z,5.30
2022-09-14T13:30:31.445Z,4.45
2022-09-14T13:32:58.851Z,5.93
2022-09-14T13:35:30.738Z,3.33
2022-09-14T13:37:59.272Z,4.68
2022-09-14T13:40:29.604Z,4.47
2022-09-14T13:42:57.619Z,4.75
2022-09-14T13:45:24.523Z,5.78
2022-09-14T13:47:53.647Z,6.63
2022-09-14T13:50:24.080Z,3.65
2022-09-14T13:53:01.981Z,7.03
2022-09-14T13:55:43.280Z,6.85
2022-09-14T13:58:09.736Z,4.07
2022-09-14T14:00:50.341Z,3.97
2022-09-14T14:03:30.355Z,4.38
2022-09-14T14:05:58.197Z,4.38
2022-09-14T14:08:34.834Z,5.15
2022-09-14T14:11:03.906Z,3.95
2022-09-14T14:13:41.065Z,5.85
2022-09-14T14:16:22.720Z,4.57
2022-09-14T14:19:31.136Z,3.90
2022-09-14T14:22:15.962Z,3.53
2022-09-14T14:25:09.540Z,5.18
2022-09-14T14:27:32.961Z,3.72
2022-09-14T14:30:02.189Z,4.15
2022-09-14T14:32:29.353Z,5.15
2022-09-14T14:34:56.296Z,10.63
2022-09-14T14:37:23.041Z,4.75
2022-09-14T14:39:49.930Z,4.88
2022-09-14T14:42:17.218Z,4.00
2022-09-14T14:44:44.727Z,6.07
2022-09-14T14:47:13.894Z,4.68
2022-09-14T14:49:40.661Z,4.20
2022-09-14T14:52:07.291Z,6.43
2022-09-14T14:54:33.892Z,4.45
2022-09-14T14:57:01.254Z,6.40
2022-09-14T14:59:29.656Z,5.25
2022-09-14T15:01:57.412Z,5.25
2022-09-14T15:04:24.056Z,5.15
2022-09-14T15:06:50.821Z,4.40
2022-09-14T15:09:20.999Z,4.95
2022-09-14T15:11:47.878Z,5.82
2022-09-14T15:14:16.910Z,5.97
2022-09-14T15:16:44.312Z,7.25
2022-09-14T15:19:11.886Z,4.93
2022-09-14T15:21:39.577Z,5.97
2022-09-14T15:24:06.767Z,6.15
2022-09-14T15:26:33.533Z,6.80
2022-09-14T15:29:01.054Z,5.30
2022-09-14T15:31:28.061Z,9.15
2022-09-14T15:33:55.561Z,7.57
2022-09-14T15:36:43.189Z,6.00
2022-09-14T15:39:14.527Z,8.80
2022-09-14T15:41:42.230Z,6.32
2022-09-14T15:44:09.626Z,5.32
2022-09-14T15:46:36.665Z,6.82
2022-09-14T15:49:09.123Z,5.25
2022-09-14T15:51:35.785Z,6.18
2022-09-14T15:54:02.945Z,4.22
2022-09-14T15:56:29.776Z,5.25
2022-09-14T15:59:01.094Z,7.13
2022-09-14T16:01:28.538Z,7.10
2022-09-14T16:04:03.697Z,4.88
2022-09-14T16:06:30.943Z,5.22
2022-09-14T16:08:58.226Z,4.93
2022-09-14T16:11:24.878Z,4.75
2022-09-14T16:13:51.794Z,4.25
2022-09-14T16:16:20.409Z,5.78
2022-09-14T16:18:49.956Z,7.90
2022-09-14T16:21:22.131Z,6.53
2022-09-14T16:23:51.257Z,7.18
2022-09-14T16:26:29.846Z,5.90
2022-09-14T16:28:57.060Z,6.38
2022-09-14T16:31:29.913Z,7.25
2022-09-14T16:33:59.285Z,5.22
2022-09-14T16:36:31.730Z,5.22
2022-09-14T16:39:01.484Z,4.75
2022-09-14T16:41:28.979Z,5.45
2022-09-14T16:43:59.594Z,5.32
2022-09-14T16:46:27.608Z,3.35
2022-09-14T16:48:55.226Z,3.88
2022-09-14T16:51:24.162Z,3.63
2022-09-14T16:53:52.257Z,3.10
2022-09-14T16:56:23.994Z,3.63
2022-09-14T16:58:53.721Z,4.03
2022-09-14T17:01:25.857Z,2.75
2022-09-14T17:03:54.464Z,2.65
2022-09-14T17:06:24.715Z,2.33
2022-09-14T17:08:54.017Z,2.33
2022-09-14T17:11:20.994Z,2.05
2022-09-14T17:13:47.756Z,1.70
2022-09-14T17:16:18.752Z,2.03
2022-09-14T17:18:49.057Z,2.97
2022-09-14T17:21:19.149Z,2.03
2022-09-14T17:23:46.316Z,1.00
2022-09-14T17:26:14.549Z,1.42
2022-09-14T17:28:44.595Z,0.90
2022-09-14T17:31:12.994Z,1.20
2022-09-14T17:33:39.913Z,0.68
2022-09-14T17:36:07.256Z,0.52
2022-09-14T17:38:36.705Z,0.40
2022-09-14T17:41:08.746Z,0.50
2022-09-14T17:43:36.407Z,0.43
2022-09-14T17:46:04.856Z,0.40
2022-09-14T17:48:36.877Z,0.38
2022-09-14T17:51:08.996Z,0.85
2022-09-14T17:53:40.019Z,0.30
2022-09-14T17:56:08.540Z,0.63
2022-09-14T17:58:36.419Z,0.52
2022-09-14T18:01:09.277Z,0.80
2022-09-14T18:03:37.904Z,0.40
2022-09-14T18:06:07.070Z,1.30
2022-09-14T18:08:33.974Z,2.55
2022-09-14T18:11:12.322Z,1.15
2022-09-14T18:13:47.285Z,0.80
2022-09-14T18:16:15.914Z,1.27
2022-09-14T18:18:43.075Z,1.60
2022-09-14T18:21:10.396Z,0.93
2022-09-14T18:23:37.701Z,1.33
2022-09-14T18:26:05.812Z,1.35
2022-09-14T18:28:33.122Z,1.13
2022-09-14T18:31:08.289Z,1.55
2022-09-14T18:33:35.521Z,1.52
2022-09-14T18:36:03.842Z,2.70
2022-09-14T18:38:31.310Z,1.83
2022-09-14T18:41:08.856Z,1.70
2022-09-14T18:43:36.022Z,2.85
2022-09-14T18:46:08.880Z,3.90
2022-09-14T18:48:35.652Z,4.22
2022-09-14T18:51:04.578Z,2.40
2022-09-14T18:53:32.046Z,3.33
2022-09-14T18:56:03.547Z,4.78
2022-09-14T18:58:36.438Z,3.20
2022-09-14T19:01:04.305Z,3.35
2022-09-14T19:03:32.277Z,4.80
2022-09-14T19:06:03.424Z,3.22
2022-09-14T19:08:29.886Z,3.85
2022-09-14T19:10:56.454Z,4.80
2022-09-14T19:13:23.132Z,4.07
2022-09-14T19:15:49.819Z,4.93
2022-09-14T19:18:16.536Z,3.95
2022-09-14T19:21:05.471Z,6.30
2022-09-14T19:23:32.006Z,5.38
2022-09-14T19:26:06.062Z,5.30
2022-09-14T19:28:33.512Z,4.80
2022-09-14T19:31:00.259Z,5.10
2022-09-14T19:33:26.692Z,5.32
2022-09-14T19:35:53.107Z,4.15
2022-09-14T19:38:19.704Z,4.72
2022-09-14T19:40:53.094Z,5.03
2022-09-14T19:43:19.645Z,5.43
2022-09-14T19:45:46.468Z,5.07
2022-09-14T19:48:12.944Z,6.18
2022-09-14T19:50:39.601Z,4.43
2022-09-14T19:53:06.437Z,4.43
2022-09-14T19:55:33.820Z,5.07
2022-09-14T19:58:01.270Z,4.55
2022-09-14T20:00:27.878Z,4.55
2022-09-14T20:02:54.475Z,5.85
2022-09-14T20:05:20.984Z,3.35
2022-09-14T20:07:48.006Z,3.70
2022-09-14T20:10:14.703Z,4.13
2022-09-14T20:12:41.453Z,3.92
2022-09-14T20:15:08.408Z,4.00
2022-09-14T20:17:35.337Z,3.00
2022-09-14T20:20:02.257Z,3.05
2022-09-14T20:22:28.821Z,2.75
2022-09-14T20:24:55.393Z,3.78
2022-09-14T20:27:22.000Z,2.88
2022-09-14T20:29:48.538Z,4.05
2022-09-14T20:32:19.572Z,6.05
2022-09-14T20:34:46.693Z,3.20
2022-09-14T20:37:13.265Z,4.68
2022-09-14T20:39:39.868Z,9.90
2022-09-14T20:42:06.530Z,5.90
2022-09-14T20:44:33.839Z,5.38
2022-09-14T20:47:00.421Z,5.68
2022-09-14T20:49:27.034Z,5.93
2022-09-14T20:51:54.456Z,8.23
2022-09-14T20:54:21.291Z,9.13
2022-09-14T20:56:48.068Z,8.23
2022-09-14T20:59:16.781Z,6.43
2022-09-14T21:01:45.586Z,6.72
2022-09-14T21:04:15.586Z,6.72
2022-09-14T21:06:46.181Z,6.05
2022-09-14T21:09:14.386Z,7.50
2022-09-14T21:11:42.059Z,9.10
2022-09-14T21:14:09.086Z,8.00
2022-09-14T21:16:42.751Z,8.05
2022-09-14T21:19:19.616Z,9.75
2022-09-14T21:21:47.578Z,10.18
2022-09-14T21:24:15.521Z,8.80
2022-09-14T21:26:43.645Z,7.85
2022-09-14T21:29:18.424Z,10.60
2022-09-14T21:31:45.119Z,9.18
2022-09-14T21:34:12.289Z,6.50
2022-09-14T21:36:48.235Z,7.95
2022-09-14T21:39:21.769Z,8.65
2022-09-14T21:41:54.490Z,7.35
2022-09-14T21:44:28.854Z,9.00
2022-09-14T21:46:55.455Z,8.10
2022-09-14T21:49:22.023Z,7.63
2022-09-14T21:51:49.387Z,8.75
2022-09-14T21:54:16.521Z,8.60
2022-09-14T21:56:44.640Z,6.93
2022-09-14T21:59:18.664Z,8.75
2022-09-14T22:01:45.858Z,7.28
2022-09-14T22:04:15.694Z,9.68
2022-09-14T22:06:44.333Z,8.27
2022-09-14T22:09:11.600Z,6.95
2022-09-14T22:11:39.241Z,6.20
2022-09-14T22:14:10.901Z,7.72
2022-09-14T22:16:38.590Z,9.50
2022-09-14T22:19:11.706Z,12.70
2022-09-14T22:21:39.464Z,9.32
2022-09-14T22:24:13.374Z,8.32
2022-09-14T22:26:40.951Z,8.90
2022-09-14T22:29:09.212Z,9.63
2022-09-14T22:31:38.087Z,8.70
2022-09-14T22:34:05.389Z,6.80
2022-09-14T22:36:31.942Z,7.88
2022-09-14T22:38:59.835Z,6.25
2022-09-14T22:41:27.802Z,11.00
2022-09-14T22:43:54.924Z,9.70
2022-09-14T22:46:22.847Z,10.15
2022-09-14T22:48:50.529Z,9.70
2022-09-14T22:51:20.522Z,9.73
2022-09-14T22:53:47.062Z,11.75
2022-09-14T22:56:19.887Z,14.27
2022-09-14T22:58:47.788Z,11.82
2022-09-14T23:01:24.311Z,8.35
2022-09-14T23:03:56.000Z,12.55
2022-09-14T23:06:26.587Z,11.60
2022-09-14T23:08:53.214Z,10.30
2022-09-14T23:11:19.782Z,10.25
2022-09-14T23:13:46.333Z,11.75
2022-09-14T23:16:16.808Z,7.95
2022-09-14T23:18:44.627Z,8.98
2022-09-14T23:21:11.529Z,12.40
2022-09-14T23:23:38.596Z,9.77
2022-09-14T23:26:08.553Z,9.50
2022-09-14T23:28:36.055Z,10.00
2022-09-14T23:31:02.684Z,6.40
2022-09-14T23:33:30.658Z,8.13
2022-09-14T23:35:57.982Z,6.00
2022-09-14T23:38:25.209Z,8.13
2022-09-14T23:40:52.295Z,5.30
2022-09-14T23:43:19.712Z,5.95
2022-09-14T23:45:47.962Z,6.13
2022-09-14T23:48:15.273Z,10.13
2022-09-14T23:50:41.909Z,10.63
2022-09-14T23:53:08.948Z,6.88
2022-09-14T23:55:35.794Z,8.05
2022-09-14T23:58:02.746Z,9.18
